Usma — V7LO2 — position and weather

sailwx.info

Track history (hours):
 
Tides and Currents Weather Stations Pressure Air Temp Water Temp Dewpoint Dewpoint Depression Visibility Wind Speed Wind Dir Waves Ship Positions

Usma

Last reported at 2018-Apr-09 19:42 UTC. Time now 2018-Apr-19 23:28 UTC.
Position N 05°59' E 001°25'.
Warning: this ship's position is 10 days out of date.

Length 195 m; draft 10.5 m.

Type: Ship. MMSI: 538002776.

Date/timePositionNaut miles runAvg speedWind from/ knotsBaromVisibWave heightAir tempDewpointWater temp
2018-Apr-09 19:42N 05°59' E 001°25'511.1
2018-Apr-09 19:13N 06°03' E 001°21'3 8.0
2018-Apr-09 18:50N 06°05' E 001°20'4 3.0
2018-Apr-09 17:26N 06°01' E 001°19'0 0.0
2018-Apr-09 07:01N 06°01' E 001°19'0 0.0
2018-Apr-09 06:52N 06°01' E 001°19'0 0.0
2018-Apr-09 06:28N 06°01' E 001°19'0 0.0
2018-Apr-09 05:46N 06°01' E 001°19'0 0.0
2018-Apr-09 04:09N 06°01' E 001°19'  
2018-Apr-05 13:20N 07°38' W 014°28'1014.5
2018-Apr-05 12:37N 07°45' W 014°36'214.3
2018-Apr-05 12:30N 07°46' W 014°37'714.5
2018-Apr-05 12:00N 07°51' W 014°42'714.2
2018-Apr-05 11:31N 07°56' W 014°47'714.1
2018-Apr-05 11:01N 08°01' W 014°52'714.5
2018-Apr-05 10:30N 08°06' W 014°57'714.3
2018-Apr-05 10:00N 08°12' W 015°02'714.4
2018-Apr-05 09:30N 08°17' W 015°06'714.2
2018-Apr-05 09:00N 08°23' W 015°11'714.5
2018-Apr-05 08:30N 08°29' W 015°15'714.5
2018-Apr-05 08:00N 08°34' W 015°20'1114.7
2018-Apr-05 07:16N 08°43' W 015°27'414.7
2018-Apr-05 07:01N 08°46' W 015°29'714.5
2018-Apr-05 06:30N 08°51' W 015°34'814.3
2018-Apr-05 05:56N 08°58' W 015°39'614.4
2018-Apr-05 05:30N 09°02' W 015°43'814.4
2018-Apr-05 04:56N 09°09' W 015°48'614.7
2018-Apr-05 04:30N 09°14' W 015°52'714.2
2018-Apr-05 04:00N 09°19' W 015°56'1214.4
2018-Apr-05 03:12N 09°28' W 016°04'314.6
2018-Apr-05 03:00N 09°31' W 016°06'714.5
2018-Apr-05 02:31N 09°36' W 016°10'814.7
2018-Apr-05 02:00N 09°42' W 016°15'714.7
2018-Apr-05 01:31N 09°48' W 016°20'714.7
2018-Apr-05 01:01N 09°53' W 016°24'714.6
2018-Apr-05 00:30N 09°59' W 016°29'714.5
2018-Apr-05 00:01N 10°05' W 016°34'3614.4
2018-Apr-04 21:30N 10°33' W 016°57'  
2018-Apr-01 12:08N 28°36' W 013°15'213.5
2018-Apr-01 11:59N 28°38' W 013°14'  
Track history (hours):
 
Tides and Currents Weather Stations Pressure Air Temp Water Temp Dewpoint Dewpoint Depression Visibility Wind Speed Wind Dir Waves Ship Positions

Usma

Last reported at 2018-Apr-09 19:42 UTC. Time now 2018-Apr-19 23:28 UTC.
Position N 05°59' E 001°25'.
Warning: this ship's position is 10 days out of date.

Length 195 m; draft 10.5 m.

Type: Ship. MMSI: 538002776.

Date/timePositionNaut miles runAvg speedWind from/ knotsBaromVisibWave heightAir tempDewpointWater temp
2018-Apr-09 19:42N 05°59' E 001°25'511.1
2018-Apr-09 19:13N 06°03' E 001°21'3 8.0
2018-Apr-09 18:50N 06°05' E 001°20'4 3.0
2018-Apr-09 17:26N 06°01' E 001°19'0 0.0
2018-Apr-09 07:01N 06°01' E 001°19'0 0.0
2018-Apr-09 06:52N 06°01' E 001°19'0 0.0
2018-Apr-09 06:28N 06°01' E 001°19'0 0.0
2018-Apr-09 05:46N 06°01' E 001°19'0 0.0
2018-Apr-09 04:09N 06°01' E 001°19'  
2018-Apr-05 13:20N 07°38' W 014°28'1014.5
2018-Apr-05 12:37N 07°45' W 014°36'214.3
2018-Apr-05 12:30N 07°46' W 014°37'714.5
2018-Apr-05 12:00N 07°51' W 014°42'714.2
2018-Apr-05 11:31N 07°56' W 014°47'714.1
2018-Apr-05 11:01N 08°01' W 014°52'714.5
2018-Apr-05 10:30N 08°06' W 014°57'714.3
2018-Apr-05 10:00N 08°12' W 015°02'714.4
2018-Apr-05 09:30N 08°17' W 015°06'714.2
2018-Apr-05 09:00N 08°23' W 015°11'714.5
2018-Apr-05 08:30N 08°29' W 015°15'714.5
2018-Apr-05 08:00N 08°34' W 015°20'1114.7
2018-Apr-05 07:16N 08°43' W 015°27'414.7
2018-Apr-05 07:01N 08°46' W 015°29'714.5
2018-Apr-05 06:30N 08°51' W 015°34'814.3
2018-Apr-05 05:56N 08°58' W 015°39'614.4
2018-Apr-05 05:30N 09°02' W 015°43'814.4
2018-Apr-05 04:56N 09°09' W 015°48'614.7
2018-Apr-05 04:30N 09°14' W 015°52'714.2
2018-Apr-05 04:00N 09°19' W 015°56'1214.4
2018-Apr-05 03:12N 09°28' W 016°04'314.6
2018-Apr-05 03:00N 09°31' W 016°06'714.5
2018-Apr-05 02:31N 09°36' W 016°10'814.7
2018-Apr-05 02:00N 09°42' W 016°15'714.7
2018-Apr-05 01:31N 09°48' W 016°20'714.7
2018-Apr-05 01:01N 09°53' W 016°24'714.6
2018-Apr-05 00:30N 09°59' W 016°29'714.5
2018-Apr-05 00:01N 10°05' W 016°34'3614.4
2018-Apr-04 21:30N 10°33' W 016°57'  
2018-Apr-01 12:08N 28°36' W 013°15'213.5
2018-Apr-01 11:59N 28°38' W 013°14'  

Dump ship's entire track history